»·PEaware :: TEXAN22 KRND-KRND

TEXAN22 :: KRND-KRND

FLIGHT INFORMATION

Flight Status: Arrived
Operator: Unknown
More flights by this operator :: More flights under this callsign
Pilot: Indie I. (23343)
Aircraft: BEECH AIRCRAFT T-6A TEXAN
(TEX2)
More flights by this aircraft type
Origin: KRND Randolph AFB
United States
Destination: KRND Randolph AFB
United States
More flights between these airports :: More routes between these airports
Route: +
File this flight plan on PilotEdge
Remarks:
Altitude:
(Current/Filed)
0ft
Speed:
(Current/Filed)
0kts
Departed: 19-Feb-20 12:44 PM
Arrived: 19-Feb-20 01:43 PM
Distance/Time
Traveled:
0nm/0:58
Distance/Time
To Go:
Arrived

Flight Plot

Page will automatically refresh every two minutes.

Flight plan parsing failed; only flown route is shown


Map Options




Map Legend


Flown Route
Filed Route
Departure Airport
Arrival Airport
Navaid (VOR, NDB)
Fix

Horizontal Profiles

Position Reports

Time Latitude Longitude Heading Altitude Ground
Speed
19-Feb-20 12:38 29.522732 -98.283086 148 765ft 41kts
19-Feb-20 12:39 29.515659 -98.278602 190 765ft 18kts
19-Feb-20 12:40 29.515386 -98.279010 287 765ft 0kts
19-Feb-20 12:41 29.515387 -98.279012 287 765ft 0kts
19-Feb-20 12:42 29.516022 -98.280791 329 765ft 0kts
19-Feb-20 12:43 29.541184 -98.297017 330 1320ft 194kts
19-Feb-20 12:44 29.514718 -98.327849 148 1829ft 207kts
19-Feb-20 12:45 29.470109 -98.288657 73 1817ft 203kts
19-Feb-20 12:46 29.506021 -98.273006 333 3577ft 145kts
19-Feb-20 12:47 29.513271 -98.296597 153 2227ft 125kts
19-Feb-20 12:48 29.520195 -98.283471 331 774ft 107kts
19-Feb-20 12:49 29.556118 -98.312629 264 2018ft 184kts
19-Feb-20 12:50 29.509286 -98.321070 149 1844ft 212kts
19-Feb-20 12:51 29.472350 -98.279974 71 1787ft 198kts
19-Feb-20 12:52 29.508691 -98.275110 333 3631ft 144kts
19-Feb-20 12:53 29.512973 -98.297899 156 2199ft 125kts
19-Feb-20 12:54 29.521119 -98.283969 329 766ft 83kts
19-Feb-20 12:55 29.525169 -98.300013 153 2460ft 143kts
19-Feb-20 12:56 29.509270 -98.277247 354 1224ft 128kts
19-Feb-20 12:57 29.537885 -98.296181 299 1446ft 157kts
19-Feb-20 12:58 29.504928 -98.290878 150 1623ft 127kts
19-Feb-20 12:59 29.474007 -98.301456 308 2278ft 199kts
19-Feb-20 13:00 29.507239 -98.348068 233 1861ft 215kts
19-Feb-20 13:01 29.484391 -98.304015 140 1755ft 201kts
19-Feb-20 13:02 29.449825 -98.266550 72 1409ft 173kts
19-Feb-20 13:03 29.481652 -98.257129 327 1174ft 137kts
19-Feb-20 13:04 29.512760 -98.278570 330 842ft 112kts
19-Feb-20 13:05 29.534616 -98.304468 216 1764ft 146kts
19-Feb-20 13:06 29.499690 -98.287135 147 1682ft 128kts
19-Feb-20 13:07 29.512939 -98.278797 330 842ft 108kts
19-Feb-20 13:08 29.544479 -98.300403 327 1381ft 197kts
19-Feb-20 13:09 29.514751 -98.330020 145 1784ft 202kts
19-Feb-20 13:10 29.469875 -98.291078 104 1789ft 202kts
19-Feb-20 13:11 29.505993 -98.273810 331 1856ft 196kts
19-Feb-20 13:12 29.508327 -98.294149 150 1744ft 113kts
19-Feb-20 13:13 29.477675 -98.283100 256 2154ft 177kts
19-Feb-20 13:14 29.508733 -98.328797 304 2303ft 196kts
19-Feb-20 13:15 29.491546 -98.329690 89 1930ft 185kts
19-Feb-20 13:17 29.473075 -98.329014 322 2400ft 201kts
19-Feb-20 13:18 29.513184 -98.343909 230 2017ft 208kts
19-Feb-20 13:19 29.483745 -98.303804 132 1725ft 204kts
19-Feb-20 13:20 29.488223 -98.262892 339 1794ft 196kts
19-Feb-20 13:21 29.521610 -98.300065 204 1826ft 176kts
19-Feb-20 13:22 29.496775 -98.275154 54 1392ft 129kts
19-Feb-20 13:23 29.523420 -98.285679 330 783ft 105kts
19-Feb-20 13:24 29.522341 -98.304138 145 1851ft 151kts
19-Feb-20 13:25 29.494023 -98.280163 93 1495ft 116kts
19-Feb-20 13:26 29.518134 -98.282197 329 765ft 86kts
19-Feb-20 13:27 29.541959 -98.313528 238 1439ft 215kts
19-Feb-20 13:28 29.503958 -98.319168 147 1848ft 184kts
19-Feb-20 13:29 29.472947 -98.277696 69 1811ft 202kts
19-Feb-20 13:30 29.517439 -98.281382 329 1850ft 205kts
19-Feb-20 13:31 29.502108 -98.288112 147 1800ft 128kts
19-Feb-20 13:32 29.514331 -98.279593 327 816ft 107kts
19-Feb-20 13:32 29.537921 -98.297897 296 1580ft 168kts
19-Feb-20 13:34 29.497527 -98.288130 165 2384ft 143kts
19-Feb-20 13:35 29.505712 -98.326744 322 2416ft 212kts
19-Feb-20 13:35 29.494535 -98.345167 110 1811ft 184kts
19-Feb-20 13:37 29.471967 -98.282813 66 1722ft 200kts
19-Feb-20 13:38 29.509537 -98.275499 334 3644ft 149kts
19-Feb-20 13:38 29.518383 -98.299805 183 2582ft 128kts
19-Feb-20 13:39 29.515256 -98.280396 331 801ft 107kts
19-Feb-20 13:41 29.522155 -98.303826 139 2256ft 167kts
19-Feb-20 13:41 29.499327 -98.279493 61 1764ft 127kts
19-Feb-20 13:42 29.522057 -98.284458 33 765ft 0kts
19-Feb-20 13:43 29.522416 -98.283945 49 765ft 0kts

Navigation Log

Ident Type
Flight plan parsing failed, navigation log unavailable